sensor_id;sensor_type;location;lat;lon;timestamp;P1;durP1;ratioP1;P2;durP2;ratioP2
84852;SDS011;75109;47.440;19.310;2024-03-22T00:00:30;55.53;;;54.30;;
84852;SDS011;75109;47.440;19.310;2024-03-22T00:01:01;54.80;;;53.20;;
84852;SDS011;75109;47.440;19.310;2024-03-22T00:01:32;55.43;;;53.83;;
84852;SDS011;75109;47.440;19.310;2024-03-22T00:02:03;56.37;;;54.47;;
84852;SDS011;75109;47.440;19.310;2024-03-22T00:02:35;57.57;;;55.47;;
84852;SDS011;75109;47.440;19.310;2024-03-22T00:03:06;58.07;;;56.17;;
84852;SDS011;75109;47.440;19.310;2024-03-22T00:03:37;57.20;;;55.47;;
84852;SDS011;75109;47.440;19.310;2024-03-22T00:04:08;56.83;;;55.33;;
84852;SDS011;75109;47.440;19.310;2024-03-22T00:04:39;55.97;;;54.73;;
84852;SDS011;75109;47.440;19.310;2024-03-22T00:05:10;57.10;;;56.27;;
84852;SDS011;75109;47.440;19.310;2024-03-22T00:05:41;58.40;;;56.73;;
84852;SDS011;75109;47.440;19.310;2024-03-22T00:06:12;58.13;;;56.40;;
84852;SDS011;75109;47.440;19.310;2024-03-22T00:06:44;56.70;;;55.33;;
84852;SDS011;75109;47.440;19.310;2024-03-22T00:07:16;57.53;;;55.93;;
84852;SDS011;75109;47.440;19.310;2024-03-22T00:07:47;57.87;;;56.17;;
84852;SDS011;75109;47.440;19.310;2024-03-22T00:08:18;56.37;;;54.83;;
84852;SDS011;75109;47.440;19.310;2024-03-22T00:08:49;54.93;;;53.53;;
84852;SDS011;75109;47.440;19.310;2024-03-22T00:09:20;56.40;;;54.93;;
84852;SDS011;75109;47.440;19.310;2024-03-22T00:09:51;55.70;;;54.10;;
84852;SDS011;75109;47.440;19.310;2024-03-22T00:10:22;54.67;;;53.40;;
84852;SDS011;75109;47.440;19.310;2024-03-22T00:10:53;55.83;;;54.20;;
84852;SDS011;75109;47.440;19.310;2024-03-22T00:11:24;56.63;;;54.73;;
84852;SDS011;75109;47.440;19.310;2024-03-22T00:11:55;59.83;;;57.80;;
84852;SDS011;75109;47.440;19.310;2024-03-22T00:12:26;58.73;;;57.37;;
84852;SDS011;75109;47.440;19.310;2024-03-22T00:12:57;58.50;;;57.43;;
84852;SDS011;75109;47.440;19.310;2024-03-22T00:13:31;59.00;;;57.63;;
84852;SDS011;75109;47.440;19.310;2024-03-22T00:14:02;58.97;;;57.27;;
84852;SDS011;75109;47.440;19.310;2024-03-22T00:14:34;57.77;;;56.20;;
84852;SDS011;75109;47.440;19.310;2024-03-22T00:15:05;59.13;;;57.30;;
84852;SDS011;75109;47.440;19.310;2024-03-22T00:15:37;57.07;;;55.83;;
84852;SDS011;75109;47.440;19.310;2024-03-22T00:16:08;57.20;;;55.97;;
84852;SDS011;75109;47.440;19.310;2024-03-22T00:16:39;59.23;;;57.47;;
84852;SDS011;75109;47.440;19.310;2024-03-22T00:17:10;58.93;;;57.33;;
84852;SDS011;75109;47.440;19.310;2024-03-22T00:17:42;59.43;;;58.33;;
84852;SDS011;75109;47.440;19.310;2024-03-22T00:18:14;58.30;;;56.97;;
84852;SDS011;75109;47.440;19.310;2024-03-22T00:18:45;58.47;;;57.07;;
84852;SDS011;75109;47.440;19.310;2024-03-22T00:19:16;56.80;;;55.40;;
84852;SDS011;75109;47.440;19.310;2024-03-22T00:19:47;57.70;;;56.57;;
84852;SDS011;75109;47.440;19.310;2024-03-22T00:20:18;56.97;;;55.83;;
84852;SDS011;75109;47.440;19.310;2024-03-22T00:20:49;58.07;;;56.63;;
84852;SDS011;75109;47.440;19.310;2024-03-22T00:21:20;58.17;;;56.70;;
84852;SDS011;75109;47.440;19.310;2024-03-22T00:21:52;58.13;;;56.77;;
84852;SDS011;75109;47.440;19.310;2024-03-22T00:22:23;57.43;;;56.00;;
84852;SDS011;75109;47.440;19.310;2024-03-22T00:22:54;60.87;;;59.23;;
84852;SDS011;75109;47.440;19.310;2024-03-22T00:23:25;60.70;;;59.10;;
84852;SDS011;75109;47.440;19.310;2024-03-22T00:23:56;59.60;;;58.30;;
84852;SDS011;75109;47.440;19.310;2024-03-22T00:24:27;60.10;;;58.63;;
84852;SDS011;75109;47.440;19.310;2024-03-22T00:24:58;58.20;;;56.80;;
84852;SDS011;75109;47.440;19.310;2024-03-22T00:25:29;57.97;;;56.70;;
84852;SDS011;75109;47.440;19.310;2024-03-22T00:26:00;60.10;;;58.43;;
84852;SDS011;75109;47.440;19.310;2024-03-22T00:26:31;60.83;;;59.03;;
84852;SDS011;75109;47.440;19.310;2024-03-22T00:27:02;59.20;;;57.63;;
84852;SDS011;75109;47.440;19.310;2024-03-22T00:27:33;59.93;;;58.27;;
84852;SDS011;75109;47.440;19.310;2024-03-22T00:28:04;59.90;;;58.27;;
84852;SDS011;75109;47.440;19.310;2024-03-22T00:28:37;60.37;;;58.63;;
84852;SDS011;75109;47.440;19.310;2024-03-22T00:29:08;59.87;;;58.03;;
84852;SDS011;75109;47.440;19.310;2024-03-22T00:29:39;59.63;;;57.77;;
84852;SDS011;75109;47.440;19.310;2024-03-22T00:30:10;60.93;;;59.10;;
84852;SDS011;75109;47.440;19.310;2024-03-22T00:30:41;58.70;;;57.07;;
84852;SDS011;75109;47.440;19.310;2024-03-22T00:31:12;59.57;;;57.90;;
84852;SDS011;75109;47.440;19.310;2024-03-22T00:31:44;61.20;;;59.57;;
84852;SDS011;75109;47.440;19.310;2024-03-22T00:32:15;61.30;;;59.67;;
84852;SDS011;75109;47.440;19.310;2024-03-22T00:32:46;60.27;;;58.60;;
84852;SDS011;75109;47.440;19.310;2024-03-22T00:33:17;60.03;;;58.57;;
84852;SDS011;75109;47.440;19.310;2024-03-22T00:33:48;58.00;;;56.67;;
84852;SDS011;75109;47.440;19.310;2024-03-22T00:34:19;56.97;;;55.93;;
84852;SDS011;75109;47.440;19.310;2024-03-22T00:34:50;57.10;;;56.60;;
84852;SDS011;75109;47.440;19.310;2024-03-22T00:35:21;59.33;;;58.10;;
84852;SDS011;75109;47.440;19.310;2024-03-22T00:35:53;61.60;;;60.10;;
84852;SDS011;75109;47.440;19.310;2024-03-22T00:36:24;59.83;;;58.23;;
84852;SDS011;75109;47.440;19.310;2024-03-22T00:36:55;60.20;;;58.77;;
84852;SDS011;75109;47.440;19.310;2024-03-22T00:37:26;59.33;;;57.83;;
84852;SDS011;75109;47.440;19.310;2024-03-22T00:37:58;58.20;;;56.60;;
84852;SDS011;75109;47.440;19.310;2024-03-22T00:38:29;60.67;;;58.67;;
84852;SDS011;75109;47.440;19.310;2024-03-22T00:39:00;59.70;;;57.97;;
84852;SDS011;75109;47.440;19.310;2024-03-22T00:39:31;58.83;;;57.40;;
84852;SDS011;75109;47.440;19.310;2024-03-22T00:40:02;56.70;;;55.33;;
84852;SDS011;75109;47.440;19.310;2024-03-22T00:40:34;57.40;;;55.80;;
84852;SDS011;75109;47.440;19.310;2024-03-22T00:41:05;58.23;;;57.33;;
84852;SDS011;75109;47.440;19.310;2024-03-22T00:41:37;60.50;;;59.30;;
84852;SDS011;75109;47.440;19.310;2024-03-22T00:42:08;60.50;;;59.10;;
84852;SDS011;75109;47.440;19.310;2024-03-22T00:42:39;59.07;;;57.80;;
84852;SDS011;75109;47.440;19.310;2024-03-22T00:43:10;58.33;;;57.13;;
84852;SDS011;75109;47.440;19.310;2024-03-22T00:43:43;60.40;;;58.83;;
84852;SDS011;75109;47.440;19.310;2024-03-22T00:44:14;59.30;;;58.00;;
84852;SDS011;75109;47.440;19.310;2024-03-22T00:44:45;57.13;;;56.60;;
84852;SDS011;75109;47.440;19.310;2024-03-22T00:45:16;59.30;;;58.07;;
84852;SDS011;75109;47.440;19.310;2024-03-22T00:45:47;59.37;;;57.93;;
84852;SDS011;75109;47.440;19.310;2024-03-22T00:46:18;59.60;;;58.10;;
84852;SDS011;75109;47.440;19.310;2024-03-22T00:46:49;62.07;;;60.07;;
84852;SDS011;75109;47.440;19.310;2024-03-22T00:47:20;60.63;;;59.07;;
84852;SDS011;75109;47.440;19.310;2024-03-22T00:47:51;63.13;;;61.13;;
84852;SDS011;75109;47.440;19.310;2024-03-22T00:48:22;63.70;;;61.57;;
84852;SDS011;75109;47.440;19.310;2024-03-22T00:48:53;63.17;;;61.27;;
84852;SDS011;75109;47.440;19.310;2024-03-22T00:49:24;62.53;;;60.63;;
84852;SDS011;75109;47.440;19.310;2024-03-22T00:49:55;61.97;;;60.20;;
84852;SDS011;75109;47.440;19.310;2024-03-22T00:50:26;62.97;;;61.27;;
84852;SDS011;75109;47.440;19.310;2024-03-22T00:50:58;63.60;;;61.63;;
84852;SDS011;75109;47.440;19.310;2024-03-22T00:51:29;62.10;;;60.03;;
84852;SDS011;75109;47.440;19.310;2024-03-22T00:52:00;62.03;;;60.10;;
84852;SDS011;75109;47.440;19.310;2024-03-22T00:52:31;61.07;;;59.27;;
84852;SDS011;75109;47.440;19.310;2024-03-22T00:53:02;63.63;;;61.83;;
84852;SDS011;75109;47.440;19.310;2024-03-22T00:53:34;61.07;;;59.43;;
84852;SDS011;75109;47.440;19.310;2024-03-22T00:54:05;60.20;;;58.37;;
84852;SDS011;75109;47.440;19.310;2024-03-22T00:54:36;60.77;;;58.97;;
84852;SDS011;75109;47.440;19.310;2024-03-22T00:55:09;60.43;;;58.70;;
84852;SDS011;75109;47.440;19.310;2024-03-22T00:55:40;62.20;;;60.37;;
84852;SDS011;75109;47.440;19.310;2024-03-22T00:56:11;61.63;;;59.67;;
84852;SDS011;75109;47.440;19.310;2024-03-22T00:56:42;61.67;;;59.97;;
84852;SDS011;75109;47.440;19.310;2024-03-22T00:57:13;61.73;;;59.97;;
84852;SDS011;75109;47.440;19.310;2024-03-22T00:57:44;62.13;;;60.13;;
84852;SDS011;75109;47.440;19.310;2024-03-22T00:58:15;62.73;;;60.63;;
84852;SDS011;75109;47.440;19.310;2024-03-22T00:58:48;59.97;;;58.43;;
84852;SDS011;75109;47.440;19.310;2024-03-22T00:59:19;59.17;;;57.57;;
84852;SDS011;75109;47.440;19.310;2024-03-22T00:59:50;58.47;;;57.20;;
84852;SDS011;75109;47.440;19.310;2024-03-22T01:00:21;58.23;;;57.03;;
84852;SDS011;75109;47.440;19.310;2024-03-22T01:00:52;60.80;;;59.53;;
84852;SDS011;75109;47.440;19.310;2024-03-22T01:01:23;60.27;;;59.03;;
84852;SDS011;75109;47.440;19.310;2024-03-22T01:01:54;63.40;;;61.50;;
84852;SDS011;75109;47.440;19.310;2024-03-22T01:02:25;62.93;;;60.97;;
84852;SDS011;75109;47.440;19.310;2024-03-22T01:02:56;60.87;;;59.20;;
84852;SDS011;75109;47.440;19.310;2024-03-22T01:03:27;61.53;;;59.73;;
84852;SDS011;75109;47.440;19.310;2024-03-22T01:03:59;61.33;;;59.77;;
84852;SDS011;75109;47.440;19.310;2024-03-22T01:04:30;59.90;;;58.50;;
84852;SDS011;75109;47.440;19.310;2024-03-22T01:05:01;60.37;;;58.97;;
84852;SDS011;75109;47.440;19.310;2024-03-22T01:05:32;59.73;;;58.43;;
84852;SDS011;75109;47.440;19.310;2024-03-22T01:06:03;59.33;;;57.70;;
84852;SDS011;75109;47.440;19.310;2024-03-22T01:06:34;61.27;;;59.50;;
84852;SDS011;75109;47.440;19.310;2024-03-22T01:07:05;58.77;;;57.33;;
84852;SDS011;75109;47.440;19.310;2024-03-22T01:07:36;59.47;;;58.07;;
84852;SDS011;75109;47.440;19.310;2024-03-22T01:08:08;60.67;;;59.10;;
84852;SDS011;75109;47.440;19.310;2024-03-22T01:08:39;59.70;;;58.00;;
84852;SDS011;75109;47.440;19.310;2024-03-22T01:09:10;60.07;;;58.43;;
84852;SDS011;75109;47.440;19.310;2024-03-22T01:09:42;60.60;;;59.13;;
84852;SDS011;75109;47.440;19.310;2024-03-22T01:10:14;58.17;;;57.13;;
84852;SDS011;75109;47.440;19.310;2024-03-22T01:10:45;57.90;;;56.80;;
84852;SDS011;75109;47.440;19.310;2024-03-22T01:11:16;58.87;;;57.43;;
84852;SDS011;75109;47.440;19.310;2024-03-22T01:11:47;57.57;;;56.20;;
84852;SDS011;75109;47.440;19.310;2024-03-22T01:12:18;57.80;;;56.33;;
84852;SDS011;75109;47.440;19.310;2024-03-22T01:12:49;58.20;;;57.07;;
84852;SDS011;75109;47.440;19.310;2024-03-22T01:13:20;57.47;;;56.23;;
84852;SDS011;75109;47.440;19.310;2024-03-22T01:13:53;57.93;;;56.43;;
84852;SDS011;75109;47.440;19.310;2024-03-22T01:14:24;57.60;;;56.27;;
84852;SDS011;75109;47.440;19.310;2024-03-22T01:14:55;57.63;;;56.43;;
84852;SDS011;75109;47.440;19.310;2024-03-22T01:15:26;57.57;;;56.53;;
84852;SDS011;75109;47.440;19.310;2024-03-22T01:15:57;56.20;;;55.10;;
84852;SDS011;75109;47.440;19.310;2024-03-22T01:16:28;57.73;;;56.53;;
84852;SDS011;75109;47.440;19.310;2024-03-22T01:16:59;58.17;;;57.00;;
84852;SDS011;75109;47.440;19.310;2024-03-22T01:17:30;57.00;;;56.70;;
84852;SDS011;75109;47.440;19.310;2024-03-22T01:18:01;58.30;;;57.33;;
84852;SDS011;75109;47.440;19.310;2024-03-22T01:18:32;59.33;;;58.07;;
84852;SDS011;75109;47.440;19.310;2024-03-22T01:19:03;59.23;;;58.03;;
84852;SDS011;75109;47.440;19.310;2024-03-22T01:19:34;58.93;;;57.70;;
84852;SDS011;75109;47.440;19.310;2024-03-22T01:20:05;57.43;;;56.37;;
84852;SDS011;75109;47.440;19.310;2024-03-22T01:20:37;57.63;;;56.27;;
84852;SDS011;75109;47.440;19.310;2024-03-22T01:21:08;58.47;;;57.23;;
84852;SDS011;75109;47.440;19.310;2024-03-22T01:21:39;58.07;;;57.30;;
84852;SDS011;75109;47.440;19.310;2024-03-22T01:22:10;58.53;;;57.63;;
84852;SDS011;75109;47.440;19.310;2024-03-22T01:22:41;59.30;;;58.00;;
84852;SDS011;75109;47.440;19.310;2024-03-22T01:23:12;57.37;;;56.20;;
84852;SDS011;75109;47.440;19.310;2024-03-22T01:23:43;58.60;;;57.47;;
84852;SDS011;75109;47.440;19.310;2024-03-22T01:24:14;60.50;;;59.47;;
84852;SDS011;75109;47.440;19.310;2024-03-22T01:24:45;59.37;;;58.53;;
84852;SDS011;75109;47.440;19.310;2024-03-22T01:25:16;57.10;;;56.10;;
84852;SDS011;75109;47.440;19.310;2024-03-22T01:25:47;58.23;;;57.20;;
84852;SDS011;75109;47.440;19.310;2024-03-22T01:26:19;57.10;;;56.10;;
84852;SDS011;75109;47.440;19.310;2024-03-22T01:26:50;56.80;;;55.60;;
84852;SDS011;75109;47.440;19.310;2024-03-22T01:27:21;56.53;;;55.37;;
84852;SDS011;75109;47.440;19.310;2024-03-22T01:27:52;53.97;;;53.60;;
84852;SDS011;75109;47.440;19.310;2024-03-22T01:28:23;56.70;;;55.80;;
84852;SDS011;75109;47.440;19.310;2024-03-22T01:28:55;60.37;;;58.97;;
84852;SDS011;75109;47.440;19.310;2024-03-22T01:29:26;59.60;;;58.23;;
84852;SDS011;75109;47.440;19.310;2024-03-22T01:30:01;58.60;;;57.07;;
84852;SDS011;75109;47.440;19.310;2024-03-22T01:30:32;58.27;;;56.43;;
84852;SDS011;75109;47.440;19.310;2024-03-22T01:31:04;57.00;;;55.43;;
84852;SDS011;75109;47.440;19.310;2024-03-22T01:31:35;58.13;;;56.50;;
84852;SDS011;75109;47.440;19.310;2024-03-22T01:32:07;57.87;;;56.40;;
84852;SDS011;75109;47.440;19.310;2024-03-22T01:32:38;60.00;;;58.47;;
84852;SDS011;75109;47.440;19.310;2024-03-22T01:33:09;59.90;;;58.23;;
84852;SDS011;75109;47.440;19.310;2024-03-22T01:33:40;60.57;;;59.03;;
84852;SDS011;75109;47.440;19.310;2024-03-22T01:34:11;57.60;;;56.13;;
84852;SDS011;75109;47.440;19.310;2024-03-22T01:34:42;58.30;;;56.67;;
84852;SDS011;75109;47.440;19.310;2024-03-22T01:35:13;57.67;;;56.40;;
84852;SDS011;75109;47.440;19.310;2024-03-22T01:35:44;56.63;;;55.77;;
84852;SDS011;75109;47.440;19.310;2024-03-22T01:36:15;56.33;;;55.30;;
84852;SDS011;75109;47.440;19.310;2024-03-22T01:36:46;56.93;;;55.60;;
84852;SDS011;75109;47.440;19.310;2024-03-22T01:37:17;57.63;;;56.37;;
84852;SDS011;75109;47.440;19.310;2024-03-22T01:37:48;55.63;;;54.63;;
84852;SDS011;75109;47.440;19.310;2024-03-22T01:38:19;54.77;;;53.97;;
84852;SDS011;75109;47.440;19.310;2024-03-22T01:38:50;56.93;;;55.83;;
84852;SDS011;75109;47.440;19.310;2024-03-22T01:39:21;56.77;;;55.47;;
84852;SDS011;75109;47.440;19.310;2024-03-22T01:39:53;56.93;;;55.53;;
84852;SDS011;75109;47.440;19.310;2024-03-22T01:40:24;57.17;;;55.43;;
84852;SDS011;75109;47.440;19.310;2024-03-22T01:40:55;58.50;;;56.90;;
84852;SDS011;75109;47.440;19.310;2024-03-22T01:41:26;56.80;;;55.87;;
84852;SDS011;75109;47.440;19.310;2024-03-22T01:41:57;56.97;;;55.80;;
84852;SDS011;75109;47.440;19.310;2024-03-22T01:42:28;55.87;;;54.60;;
84852;SDS011;75109;47.440;19.310;2024-03-22T01:42:59;57.03;;;55.50;;
84852;SDS011;75109;47.440;19.310;2024-03-22T01:43:32;56.43;;;55.07;;
84852;SDS011;75109;47.440;19.310;2024-03-22T01:44:04;57.27;;;55.83;;
84852;SDS011;75109;47.440;19.310;2024-03-22T01:44:35;57.90;;;56.37;;
84852;SDS011;75109;47.440;19.310;2024-03-22T01:45:07;54.40;;;52.93;;
84852;SDS011;75109;47.440;19.310;2024-03-22T01:45:38;54.43;;;53.17;;
84852;SDS011;75109;47.440;19.310;2024-03-22T01:46:09;55.00;;;53.77;;
84852;SDS011;75109;47.440;19.310;2024-03-22T01:46:41;56.07;;;54.80;;
84852;SDS011;75109;47.440;19.310;2024-03-22T01:47:12;54.90;;;54.23;;
84852;SDS011;75109;47.440;19.310;2024-03-22T01:47:43;53.23;;;52.73;;
84852;SDS011;75109;47.440;19.310;2024-03-22T01:48:15;54.53;;;53.60;;
84852;SDS011;75109;47.440;19.310;2024-03-22T01:48:46;54.83;;;54.30;;
84852;SDS011;75109;47.440;19.310;2024-03-22T01:49:18;55.23;;;54.07;;
84852;SDS011;75109;47.440;19.310;2024-03-22T01:49:50;57.53;;;55.90;;
84852;SDS011;75109;47.440;19.310;2024-03-22T01:50:26;56.87;;;55.17;;
84852;SDS011;75109;47.440;19.310;2024-03-22T01:51:00;54.03;;;53.50;;
84852;SDS011;75109;47.440;19.310;2024-03-22T01:51:34;54.87;;;54.30;;
84852;SDS011;75109;47.440;19.310;2024-03-22T01:52:05;54.83;;;53.80;;
84852;SDS011;75109;47.440;19.310;2024-03-22T01:52:36;54.77;;;53.97;;
84852;SDS011;75109;47.440;19.310;2024-03-22T01:53:08;55.27;;;54.37;;
84852;SDS011;75109;47.440;19.310;2024-03-22T01:53:40;54.87;;;53.33;;
84852;SDS011;75109;47.440;19.310;2024-03-22T01:54:12;56.53;;;54.77;;
84852;SDS011;75109;47.440;19.310;2024-03-22T01:54:43;54.17;;;52.73;;
84852;SDS011;75109;47.440;19.310;2024-03-22T01:55:14;54.60;;;53.10;;
84852;SDS011;75109;47.440;19.310;2024-03-22T01:55:45;53.87;;;52.20;;
84852;SDS011;75109;47.440;19.310;2024-03-22T01:56:16;53.23;;;51.87;;
84852;SDS011;75109;47.440;19.310;2024-03-22T01:56:47;53.10;;;51.73;;
84852;SDS011;75109;47.440;19.310;2024-03-22T01:57:18;54.47;;;53.17;;
84852;SDS011;75109;47.440;19.310;2024-03-22T01:57:49;53.07;;;52.43;;
84852;SDS011;75109;47.440;19.310;2024-03-22T01:58:23;51.90;;;51.47;;
84852;SDS011;75109;47.440;19.310;2024-03-22T01:58:55;54.03;;;52.93;;
84852;SDS011;75109;47.440;19.310;2024-03-22T01:59:29;53.97;;;52.60;;
84852;SDS011;75109;47.440;19.310;2024-03-22T02:00:01;54.27;;;52.70;;
84852;SDS011;75109;47.440;19.310;2024-03-22T02:00:32;56.00;;;54.43;;
84852;SDS011;75109;47.440;19.310;2024-03-22T02:01:03;55.30;;;53.83;;
84852;SDS011;75109;47.440;19.310;2024-03-22T02:01:34;54.70;;;53.20;;
84852;SDS011;75109;47.440;19.310;2024-03-22T02:02:06;54.80;;;53.37;;
84852;SDS011;75109;47.440;19.310;2024-03-22T02:02:37;53.53;;;52.97;;
84852;SDS011;75109;47.440;19.310;2024-03-22T02:03:08;54.90;;;53.60;;
84852;SDS011;75109;47.440;19.310;2024-03-22T02:03:39;54.93;;;53.47;;
84852;SDS011;75109;47.440;19.310;2024-03-22T02:04:10;54.73;;;53.77;;
84852;SDS011;75109;47.440;19.310;2024-03-22T02:04:41;55.83;;;54.53;;
84852;SDS011;75109;47.440;19.310;2024-03-22T02:05:13;55.17;;;53.80;;
84852;SDS011;75109;47.440;19.310;2024-03-22T02:05:45;54.53;;;53.03;;
84852;SDS011;75109;47.440;19.310;2024-03-22T02:06:16;55.57;;;54.07;;
84852;SDS011;75109;47.440;19.310;2024-03-22T02:06:48;54.53;;;53.13;;
84852;SDS011;75109;47.440;19.310;2024-03-22T02:07:19;54.57;;;52.97;;
84852;SDS011;75109;47.440;19.310;2024-03-22T02:07:50;55.07;;;53.60;;
84852;SDS011;75109;47.440;19.310;2024-03-22T02:08:21;54.33;;;52.70;;
84852;SDS011;75109;47.440;19.310;2024-03-22T02:08:52;53.33;;;51.97;;
84852;SDS011;75109;47.440;19.310;2024-03-22T02:09:24;53.00;;;51.60;;
84852;SDS011;75109;47.440;19.310;2024-03-22T02:09:55;54.23;;;52.90;;
84852;SDS011;75109;47.440;19.310;2024-03-22T02:10:27;56.13;;;54.77;;
84852;SDS011;75109;47.440;19.310;2024-03-22T02:10:59;56.40;;;54.90;;
84852;SDS011;75109;47.440;19.310;2024-03-22T02:11:30;53.30;;;52.07;;
84852;SDS011;75109;47.440;19.310;2024-03-22T02:12:02;55.87;;;54.73;;
84852;SDS011;75109;47.440;19.310;2024-03-22T02:12:33;57.83;;;56.20;;
84852;SDS011;75109;47.440;19.310;2024-03-22T02:13:04;56.63;;;55.10;;
84852;SDS011;75109;47.440;19.310;2024-03-22T02:13:35;53.40;;;51.97;;
84852;SDS011;75109;47.440;19.310;2024-03-22T02:14:06;52.43;;;50.90;;
84852;SDS011;75109;47.440;19.310;2024-03-22T02:14:39;53.60;;;52.03;;
84852;SDS011;75109;47.440;19.310;2024-03-22T02:15:10;55.23;;;53.47;;
84852;SDS011;75109;47.440;19.310;2024-03-22T02:15:41;55.17;;;53.43;;
84852;SDS011;75109;47.440;19.310;2024-03-22T02:16:12;55.07;;;53.50;;
84852;SDS011;75109;47.440;19.310;2024-03-22T02:16:43;55.03;;;53.60;;
84852;SDS011;75109;47.440;19.310;2024-03-22T02:17:15;56.70;;;55.00;;
84852;SDS011;75109;47.440;19.310;2024-03-22T02:17:47;55.53;;;53.67;;
84852;SDS011;75109;47.440;19.310;2024-03-22T02:18:17;55.90;;;54.43;;
84852;SDS011;75109;47.440;19.310;2024-03-22T02:18:48;57.30;;;56.03;;
84852;SDS011;75109;47.440;19.310;2024-03-22T02:19:20;56.77;;;55.57;;
84852;SDS011;75109;47.440;19.310;2024-03-22T02:19:51;55.70;;;54.37;;
84852;SDS011;75109;47.440;19.310;2024-03-22T02:20:22;57.20;;;55.43;;
84852;SDS011;75109;47.440;19.310;2024-03-22T02:20:53;55.90;;;54.80;;
84852;SDS011;75109;47.440;19.310;2024-03-22T02:21:24;54.83;;;53.93;;
84852;SDS011;75109;47.440;19.310;2024-03-22T02:21:55;54.63;;;53.93;;
84852;SDS011;75109;47.440;19.310;2024-03-22T02:22:26;56.03;;;55.50;;
84852;SDS011;75109;47.440;19.310;2024-03-22T02:22:57;55.63;;;55.60;;
84852;SDS011;75109;47.440;19.310;2024-03-22T02:23:31;58.20;;;57.73;;
84852;SDS011;75109;47.440;19.310;2024-03-22T02:24:04;57.93;;;57.30;;
84852;SDS011;75109;47.440;19.310;2024-03-22T02:24:35;59.07;;;57.87;;
84852;SDS011;75109;47.440;19.310;2024-03-22T02:25:07;59.13;;;57.60;;
84852;SDS011;75109;47.440;19.310;2024-03-22T02:25:41;58.73;;;57.20;;
84852;SDS011;75109;47.440;19.310;2024-03-22T02:26:12;58.53;;;57.50;;
84852;SDS011;75109;47.440;19.310;2024-03-22T02:26:43;59.40;;;58.73;;
84852;SDS011;75109;47.440;19.310;2024-03-22T02:27:14;58.97;;;57.63;;
84852;SDS011;75109;47.440;19.310;2024-03-22T02:27:45;58.97;;;57.63;;
84852;SDS011;75109;47.440;19.310;2024-03-22T02:28:20;58.80;;;57.50;;
84852;SDS011;75109;47.440;19.310;2024-03-22T02:28:51;58.80;;;57.60;;
84852;SDS011;75109;47.440;19.310;2024-03-22T02:29:22;57.57;;;56.33;;
84852;SDS011;75109;47.440;19.310;2024-03-22T02:29:53;56.93;;;56.13;;
84852;SDS011;75109;47.440;19.310;2024-03-22T02:30:24;54.07;;;53.50;;
84852;SDS011;75109;47.440;19.310;2024-03-22T02:30:55;55.07;;;54.20;;
84852;SDS011;75109;47.440;19.310;2024-03-22T02:31:26;57.20;;;56.30;;
84852;SDS011;75109;47.440;19.310;2024-03-22T02:31:57;57.93;;;56.90;;
84852;SDS011;75109;47.440;19.310;2024-03-22T02:32:28;57.53;;;56.53;;
84852;SDS011;75109;47.440;19.310;2024-03-22T02:32:59;54.17;;;53.70;;
84852;SDS011;75109;47.440;19.310;2024-03-22T02:33:31;54.47;;;54.33;;
84852;SDS011;75109;47.440;19.310;2024-03-22T02:34:02;54.27;;;53.60;;
84852;SDS011;75109;47.440;19.310;2024-03-22T02:34:33;56.17;;;55.13;;
84852;SDS011;75109;47.440;19.310;2024-03-22T02:35:04;56.77;;;55.67;;
84852;SDS011;75109;47.440;19.310;2024-03-22T02:35:35;55.43;;;54.23;;
84852;SDS011;75109;47.440;19.310;2024-03-22T02:36:07;57.57;;;56.40;;
84852;SDS011;75109;47.440;19.310;2024-03-22T02:36:39;58.33;;;57.20;;
84852;SDS011;75109;47.440;19.310;2024-03-22T02:37:10;56.50;;;56.13;;
84852;SDS011;75109;47.440;19.310;2024-03-22T02:37:41;56.60;;;55.93;;
84852;SDS011;75109;47.440;19.310;2024-03-22T02:38:12;57.87;;;56.60;;
84852;SDS011;75109;47.440;19.310;2024-03-22T02:38:45;59.20;;;57.50;;
84852;SDS011;75109;47.440;19.310;2024-03-22T02:39:16;57.27;;;55.70;;
84852;SDS011;75109;47.440;19.310;2024-03-22T02:39:47;56.83;;;55.97;;
84852;SDS011;75109;47.440;19.310;2024-03-22T02:40:18;57.23;;;56.00;;
84852;SDS011;75109;47.440;19.310;2024-03-22T02:40:50;58.00;;;56.57;;
84852;SDS011;75109;47.440;19.310;2024-03-22T02:41:22;58.57;;;57.07;;
84852;SDS011;75109;47.440;19.310;2024-03-22T02:41:53;56.23;;;55.27;;
84852;SDS011;75109;47.440;19.310;2024-03-22T02:42:24;57.90;;;56.83;;
84852;SDS011;75109;47.440;19.310;2024-03-22T02:42:55;55.43;;;54.30;;
84852;SDS011;75109;47.440;19.310;2024-03-22T02:43:27;55.13;;;53.77;;
84852;SDS011;75109;47.440;19.310;2024-03-22T02:43:58;56.80;;;55.63;;
84852;SDS011;75109;47.440;19.310;2024-03-22T02:44:29;56.23;;;55.03;;
84852;SDS011;75109;47.440;19.310;2024-03-22T02:45:00;53.87;;;52.63;;
84852;SDS011;75109;47.440;19.310;2024-03-22T02:45:31;55.67;;;54.53;;
84852;SDS011;75109;47.440;19.310;2024-03-22T02:46:02;57.10;;;56.07;;
84852;SDS011;75109;47.440;19.310;2024-03-22T02:46:34;57.13;;;55.93;;
84852;SDS011;75109;47.440;19.310;2024-03-22T02:47:05;56.33;;;54.87;;
84852;SDS011;75109;47.440;19.310;2024-03-22T02:47:36;58.03;;;56.47;;
84852;SDS011;75109;47.440;19.310;2024-03-22T02:48:07;57.93;;;56.47;;
84852;SDS011;75109;47.440;19.310;2024-03-22T02:48:38;56.73;;;55.60;;
84852;SDS011;75109;47.440;19.310;2024-03-22T02:49:09;57.17;;;55.73;;
84852;SDS011;75109;47.440;19.310;2024-03-22T02:49:40;56.50;;;55.40;;
84852;SDS011;75109;47.440;19.310;2024-03-22T02:50:11;56.63;;;55.63;;
84852;SDS011;75109;47.440;19.310;2024-03-22T02:50:42;56.27;;;55.07;;
84852;SDS011;75109;47.440;19.310;2024-03-22T02:51:13;56.27;;;54.60;;
84852;SDS011;75109;47.440;19.310;2024-03-22T02:51:44;55.97;;;54.37;;
84852;SDS011;75109;47.440;19.310;2024-03-22T02:52:15;55.67;;;54.37;;
84852;SDS011;75109;47.440;19.310;2024-03-22T02:52:47;54.80;;;54.13;;
84852;SDS011;75109;47.440;19.310;2024-03-22T02:53:18;55.67;;;54.77;;
84852;SDS011;75109;47.440;19.310;2024-03-22T02:53:51;54.30;;;53.63;;
84852;SDS011;75109;47.440;19.310;2024-03-22T02:54:22;56.00;;;55.03;;
84852;SDS011;75109;47.440;19.310;2024-03-22T02:54:53;56.13;;;54.77;;
84852;SDS011;75109;47.440;19.310;2024-03-22T02:55:24;57.20;;;55.50;;
84852;SDS011;75109;47.440;19.310;2024-03-22T02:55:55;57.23;;;55.60;;
84852;SDS011;75109;47.440;19.310;2024-03-22T02:56:26;58.00;;;56.33;;
84852;SDS011;75109;47.440;19.310;2024-03-22T02:56:58;55.00;;;54.20;;
84852;SDS011;75109;47.440;19.310;2024-03-22T02:57:29;55.83;;;54.30;;
84852;SDS011;75109;47.440;19.310;2024-03-22T02:58:00;55.97;;;54.50;;
84852;SDS011;75109;47.440;19.310;2024-03-22T02:58:31;53.67;;;52.80;;
84852;SDS011;75109;47.440;19.310;2024-03-22T02:59:02;53.43;;;52.70;;
84852;SDS011;75109;47.440;19.310;2024-03-22T02:59:33;54.27;;;53.53;;
84852;SDS011;75109;47.440;19.310;2024-03-22T03:00:05;55.53;;;54.57;;
84852;SDS011;75109;47.440;19.310;2024-03-22T03:00:36;56.03;;;54.93;;